sensor_id;sensor_type;location;lat;lon;timestamp;pressure;altitude;pressure_sealevel;temperature;humidity
35758;BME280;21879;50.110;18.900;2024-02-21T00:09:08;99338.69;;;21.92;45.19
35758;BME280;21879;50.110;18.900;2024-02-21T00:19:14;99329.16;;;21.91;45.14
35758;BME280;21879;50.110;18.900;2024-02-21T00:29:20;99328.33;;;21.90;45.12
35758;BME280;21879;50.110;18.900;2024-02-21T00:39:26;99320.79;;;21.89;44.99
35758;BME280;21879;50.110;18.900;2024-02-21T00:49:32;99307.19;;;21.88;44.96
35758;BME280;21879;50.110;18.900;2024-02-21T00:59:37;99299.65;;;21.86;44.84
35758;BME280;21879;50.110;18.900;2024-02-21T01:09:43;99299.81;;;21.87;44.82
35758;BME280;21879;50.110;18.900;2024-02-21T01:19:49;99296.04;;;21.88;44.85
35758;BME280;21879;50.110;18.900;2024-02-21T01:29:54;99289.88;;;21.87;44.83
35758;BME280;21879;50.110;18.900;2024-02-21T01:40:01;99279.30;;;21.86;44.81
35758;BME280;21879;50.110;18.900;2024-02-21T01:50:07;99277.18;;;21.86;44.83
35758;BME280;21879;50.110;18.900;2024-02-21T02:00:14;99270.65;;;21.86;44.71
35758;BME280;21879;50.110;18.900;2024-02-21T02:10:21;99272.63;;;21.85;44.61
35758;BME280;21879;50.110;18.900;2024-02-21T02:20:27;99264.64;;;21.86;44.55
35758;BME280;21879;50.110;18.900;2024-02-21T02:30:33;99259.69;;;21.86;44.54
35758;BME280;21879;50.110;18.900;2024-02-21T02:40:40;99255.61;;;21.85;44.68
35758;BME280;21879;50.110;18.900;2024-02-21T02:50:46;99249.05;;;21.86;44.59
35758;BME280;21879;50.110;18.900;2024-02-21T03:00:53;99230.84;;;21.86;44.62
35758;BME280;21879;50.110;18.900;2024-02-21T03:10:59;99219.88;;;21.85;44.52
35758;BME280;21879;50.110;18.900;2024-02-21T03:21:05;99217.45;;;21.84;44.49
35758;BME280;21879;50.110;18.900;2024-02-21T03:31:12;99210.59;;;21.83;44.47
35758;BME280;21879;50.110;18.900;2024-02-21T03:41:18;99208.34;;;21.83;44.47
35758;BME280;21879;50.110;18.900;2024-02-21T03:51:26;99202.48;;;21.83;44.39
35758;BME280;21879;50.110;18.900;2024-02-21T04:01:31;99201.39;;;21.83;44.55
35758;BME280;21879;50.110;18.900;2024-02-21T04:11:37;99198.52;;;21.88;45.80
35758;BME280;21879;50.110;18.900;2024-02-21T04:21:42;99201.60;;;21.90;45.86
35758;BME280;21879;50.110;18.900;2024-02-21T04:31:51;99193.98;;;21.90;45.77
35758;BME280;21879;50.110;18.900;2024-02-21T04:41:56;99191.19;;;21.89;45.74
35758;BME280;21879;50.110;18.900;2024-02-21T04:52:02;99195.67;;;21.88;45.65
35758;BME280;21879;50.110;18.900;2024-02-21T05:02:08;99182.75;;;21.88;45.51
35758;BME280;21879;50.110;18.900;2024-02-21T05:12:17;99168.26;;;21.87;45.48
35758;BME280;21879;50.110;18.900;2024-02-21T05:22:23;99162.13;;;21.86;45.28
35758;BME280;21879;50.110;18.900;2024-02-21T05:32:29;99156.72;;;21.85;45.17
35758;BME280;21879;50.110;18.900;2024-02-21T05:42:34;99151.15;;;21.82;45.04
35758;BME280;21879;50.110;18.900;2024-02-21T05:52:40;99150.98;;;21.82;44.96
35758;BME280;21879;50.110;18.900;2024-02-21T06:02:46;99153.86;;;21.80;44.80
35758;BME280;21879;50.110;18.900;2024-02-21T06:12:51;99150.05;;;21.79;44.67
35758;BME280;21879;50.110;18.900;2024-02-21T06:22:57;99155.74;;;21.78;44.65
35758;BME280;21879;50.110;18.900;2024-02-21T06:33:03;99150.51;;;21.77;44.77
35758;BME280;21879;50.110;18.900;2024-02-21T06:43:09;99152.48;;;21.76;44.56
35758;BME280;21879;50.110;18.900;2024-02-21T06:53:14;99147.42;;;21.75;44.34
35758;BME280;21879;50.110;18.900;2024-02-21T07:03:20;99149.95;;;21.74;44.01
35758;BME280;21879;50.110;18.900;2024-02-21T07:13:25;99147.38;;;21.72;43.69
35758;BME280;21879;50.110;18.900;2024-02-21T07:23:31;99153.27;;;21.71;43.78
35758;BME280;21879;50.110;18.900;2024-02-21T07:33:37;99146.93;;;21.70;43.78
35758;BME280;21879;50.110;18.900;2024-02-21T07:43:42;99137.91;;;21.70;43.93
35758;BME280;21879;50.110;18.900;2024-02-21T07:53:48;99122.40;;;21.69;43.47
35758;BME280;21879;50.110;18.900;2024-02-21T08:03:53;99123.73;;;21.67;43.05
35758;BME280;21879;50.110;18.900;2024-02-21T08:13:59;99109.81;;;21.66;43.03
35758;BME280;21879;50.110;18.900;2024-02-21T08:24:05;99096.00;;;21.66;43.03
35758;BME280;21879;50.110;18.900;2024-02-21T08:34:10;99087.33;;;21.66;42.72
35758;BME280;21879;50.110;18.900;2024-02-21T08:44:18;99083.70;;;21.68;42.70
35758;BME280;21879;50.110;18.900;2024-02-21T08:54:23;99084.67;;;21.70;42.49
35758;BME280;21879;50.110;18.900;2024-02-21T09:04:29;99068.48;;;21.71;42.32
35758;BME280;21879;50.110;18.900;2024-02-21T09:14:36;99054.77;;;21.73;41.97
35758;BME280;21879;50.110;18.900;2024-02-21T09:24:43;99050.92;;;21.76;41.80
35758;BME280;21879;50.110;18.900;2024-02-21T09:34:48;99056.06;;;21.79;41.41
35758;BME280;21879;50.110;18.900;2024-02-21T09:44:54;99057.73;;;21.81;41.30
35758;BME280;21879;50.110;18.900;2024-02-21T09:55:00;99065.70;;;21.81;41.71
35758;BME280;21879;50.110;18.900;2024-02-21T10:05:06;99061.35;;;21.80;41.93
35758;BME280;21879;50.110;18.900;2024-02-21T10:15:12;99060.27;;;21.76;42.22
35758;BME280;21879;50.110;18.900;2024-02-21T10:25:18;99055.42;;;21.71;42.39
35758;BME280;21879;50.110;18.900;2024-02-21T10:35:27;99050.40;;;21.65;42.60
35758;BME280;21879;50.110;18.900;2024-02-21T10:45:34;99035.52;;;21.58;42.62
35758;BME280;21879;50.110;18.900;2024-02-21T10:55:41;99020.45;;;21.55;42.65
35758;BME280;21879;50.110;18.900;2024-02-21T11:05:48;99015.95;;;21.50;42.64
35758;BME280;21879;50.110;18.900;2024-02-21T11:15:54;99005.04;;;21.45;42.87
35758;BME280;21879;50.110;18.900;2024-02-21T11:26:10;98987.19;;;21.41;43.03
35758;BME280;21879;50.110;18.900;2024-02-21T11:36:25;98977.77;;;21.38;43.15
35758;BME280;21879;50.110;18.900;2024-02-21T11:46:31;98965.96;;;21.38;43.54
35758;BME280;21879;50.110;18.900;2024-02-21T11:56:36;98961.53;;;21.38;43.94
35758;BME280;21879;50.110;18.900;2024-02-21T12:06:42;98957.60;;;21.34;43.99
35758;BME280;21879;50.110;18.900;2024-02-21T12:16:48;98953.60;;;21.33;44.35
35758;BME280;21879;50.110;18.900;2024-02-21T12:26:56;98949.77;;;21.31;44.35
35758;BME280;21879;50.110;18.900;2024-02-21T12:37:03;98950.96;;;21.29;44.24
35758;BME280;21879;50.110;18.900;2024-02-21T12:47:08;98936.48;;;21.25;44.47
35758;BME280;21879;50.110;18.900;2024-02-21T12:57:14;98925.25;;;21.23;44.93
35758;BME280;21879;50.110;18.900;2024-02-21T13:07:20;98909.90;;;21.23;45.12
35758;BME280;21879;50.110;18.900;2024-02-21T13:17:25;98902.38;;;21.21;45.02
35758;BME280;21879;50.110;18.900;2024-02-21T13:27:34;98891.67;;;21.19;45.20
35758;BME280;21879;50.110;18.900;2024-02-21T13:37:40;98883.09;;;21.17;45.17
35758;BME280;21879;50.110;18.900;2024-02-21T13:47:46;98875.02;;;21.13;45.11
35758;BME280;21879;50.110;18.900;2024-02-21T13:57:52;98866.22;;;21.08;45.05
35758;BME280;21879;50.110;18.900;2024-02-21T14:07:58;98868.06;;;21.03;45.00
35758;BME280;21879;50.110;18.900;2024-02-21T14:18:04;98854.77;;;21.01;44.75
35758;BME280;21879;50.110;18.900;2024-02-21T14:28:14;98837.41;;;20.98;44.74
35758;BME280;21879;50.110;18.900;2024-02-21T14:38:23;98819.84;;;20.95;44.61
35758;BME280;21879;50.110;18.900;2024-02-21T14:48:29;98804.48;;;20.92;44.16
35758;BME280;21879;50.110;18.900;2024-02-21T14:58:36;98774.46;;;20.84;43.79
35758;BME280;21879;50.110;18.900;2024-02-21T15:08:41;98774.77;;;20.56;43.85
35758;BME280;21879;50.110;18.900;2024-02-21T15:18:47;98771.98;;;20.56;44.21
35758;BME280;21879;50.110;18.900;2024-02-21T15:28:53;98771.15;;;20.58;44.73
35758;BME280;21879;50.110;18.900;2024-02-21T15:38:59;98764.80;;;20.65;46.21
35758;BME280;21879;50.110;18.900;2024-02-21T15:49:06;98747.89;;;20.71;47.28
35758;BME280;21879;50.110;18.900;2024-02-21T15:59:12;98734.98;;;20.75;47.86
35758;BME280;21879;50.110;18.900;2024-02-21T16:09:18;98748.23;;;20.78;48.10
35758;BME280;21879;50.110;18.900;2024-02-21T16:19:24;98751.44;;;20.81;48.65
35758;BME280;21879;50.110;18.900;2024-02-21T16:29:29;98744.23;;;20.84;49.50
35758;BME280;21879;50.110;18.900;2024-02-21T16:39:35;98720.63;;;20.86;49.94
35758;BME280;21879;50.110;18.900;2024-02-21T16:49:41;98708.44;;;20.86;49.47
35758;BME280;21879;50.110;18.900;2024-02-21T16:59:47;98727.23;;;20.85;49.50
35758;BME280;21879;50.110;18.900;2024-02-21T17:09:52;98728.09;;;20.85;50.13
35758;BME280;21879;50.110;18.900;2024-02-21T17:19:58;98702.07;;;20.86;50.20
35758;BME280;21879;50.110;18.900;2024-02-21T17:30:05;98692.02;;;20.85;49.83
35758;BME280;21879;50.110;18.900;2024-02-21T17:40:13;98689.20;;;20.85;49.39
35758;BME280;21879;50.110;18.900;2024-02-21T17:50:19;98699.91;;;20.87;49.82
35758;BME280;21879;50.110;18.900;2024-02-21T18:00:25;98690.99;;;20.88;50.27
35758;BME280;21879;50.110;18.900;2024-02-21T18:10:34;98688.48;;;20.89;50.64
35758;BME280;21879;50.110;18.900;2024-02-21T18:20:42;98680.83;;;20.91;50.87
35758;BME280;21879;50.110;18.900;2024-02-21T18:30:48;98662.10;;;20.91;50.85
35758;BME280;21879;50.110;18.900;2024-02-21T18:40:53;98647.98;;;20.90;50.87
35758;BME280;21879;50.110;18.900;2024-02-21T18:50:59;98629.81;;;20.90;51.14
35758;BME280;21879;50.110;18.900;2024-02-21T19:01:05;98613.73;;;20.89;50.97
35758;BME280;21879;50.110;18.900;2024-02-21T19:11:10;98595.13;;;20.87;50.90
35758;BME280;21879;50.110;18.900;2024-02-21T19:21:16;98584.69;;;20.87;51.07
35758;BME280;21879;50.110;18.900;2024-02-21T19:31:23;98580.38;;;20.95;51.56
35758;BME280;21879;50.110;18.900;2024-02-21T19:41:28;98571.52;;;21.02;50.96
35758;BME280;21879;50.110;18.900;2024-02-21T19:51:34;98565.38;;;21.05;51.18
35758;BME280;21879;50.110;18.900;2024-02-21T20:01:39;98558.08;;;21.05;51.63
35758;BME280;21879;50.110;18.900;2024-02-21T20:11:45;98551.88;;;21.05;51.90
35758;BME280;21879;50.110;18.900;2024-02-21T20:21:51;98539.74;;;21.04;51.94
35758;BME280;21879;50.110;18.900;2024-02-21T20:31:58;98529.06;;;21.02;51.75
35758;BME280;21879;50.110;18.900;2024-02-21T20:42:04;98515.77;;;21.00;51.40
35758;BME280;21879;50.110;18.900;2024-02-21T20:52:10;98498.24;;;20.98;51.27
35758;BME280;21879;50.110;18.900;2024-02-21T21:02:15;98506.25;;;20.96;51.38
35758;BME280;21879;50.110;18.900;2024-02-21T21:12:21;98494.23;;;20.96;51.50
35758;BME280;21879;50.110;18.900;2024-02-21T21:22:27;98479.59;;;20.96;51.29
35758;BME280;21879;50.110;18.900;2024-02-21T21:32:33;98461.86;;;20.94;51.05
35758;BME280;21879;50.110;18.900;2024-02-21T21:42:38;98443.11;;;20.91;50.25
35758;BME280;21879;50.110;18.900;2024-02-21T21:52:44;98421.79;;;20.86;49.65
35758;BME280;21879;50.110;18.900;2024-02-21T22:02:51;98404.26;;;20.84;49.32
35758;BME280;21879;50.110;18.900;2024-02-21T22:12:57;98388.66;;;20.81;48.96
35758;BME280;21879;50.110;18.900;2024-02-21T22:23:02;98370.52;;;20.80;48.99
35758;BME280;21879;50.110;18.900;2024-02-21T22:33:08;98353.79;;;20.80;49.06
35758;BME280;21879;50.110;18.900;2024-02-21T22:43:14;98335.75;;;20.80;49.07
35758;BME280;21879;50.110;18.900;2024-02-21T22:53:19;98325.51;;;20.80;49.04
35758;BME280;21879;50.110;18.900;2024-02-21T23:03:25;98312.38;;;20.81;49.24
35758;BME280;21879;50.110;18.900;2024-02-21T23:13:35;98297.30;;;20.82;49.17
35758;BME280;21879;50.110;18.900;2024-02-21T23:23:41;98283.95;;;20.80;48.71
35758;BME280;21879;50.110;18.900;2024-02-21T23:33:47;98275.52;;;20.79;48.61
35758;BME280;21879;50.110;18.900;2024-02-21T23:43:53;98274.88;;;20.81;48.87
35758;BME280;21879;50.110;18.900;2024-02-21T23:54:03;98262.42;;;20.83;48.86
